sensor_id;sensor_type;location;lat;lon;timestamp;P1;durP1;ratioP1;P2;durP2;ratioP2
16967;SDS011;64862;54.398;10.126;2024-02-26T00:08:12;18.90;;;12.95;;
16967;SDS011;64862;54.398;10.126;2024-02-26T00:18:15;19.70;;;13.23;;
16967;SDS011;64862;54.398;10.126;2024-02-26T00:28:17;21.70;;;14.45;;
16967;SDS011;64862;54.398;10.126;2024-02-26T00:38:21;18.98;;;13.07;;
16967;SDS011;64862;54.398;10.126;2024-02-26T00:48:23;21.35;;;14.00;;
16967;SDS011;64862;54.398;10.126;2024-02-26T00:58:28;19.70;;;13.43;;
16967;SDS011;64862;54.398;10.126;2024-02-26T01:08:30;28.85;;;14.65;;
16967;SDS011;64862;54.398;10.126;2024-02-26T01:18:34;22.83;;;14.77;;
16967;SDS011;64862;54.398;10.126;2024-02-26T01:28:36;21.83;;;13.40;;
16967;SDS011;64862;54.398;10.126;2024-02-26T01:38:39;16.42;;;11.55;;
16967;SDS011;64862;54.398;10.126;2024-02-26T01:48:41;16.20;;;11.23;;
16967;SDS011;64862;54.398;10.126;2024-02-26T01:58:47;17.65;;;11.85;;
16967;SDS011;64862;54.398;10.126;2024-02-26T02:08:50;18.90;;;13.30;;
16967;SDS011;64862;54.398;10.126;2024-02-26T02:18:54;22.92;;;14.95;;
16967;SDS011;64862;54.398;10.126;2024-02-26T02:28:57;27.33;;;15.02;;
16967;SDS011;64862;54.398;10.126;2024-02-26T02:39:00;37.75;;;12.63;;
16967;SDS011;64862;54.398;10.126;2024-02-26T02:49:07;23.58;;;10.23;;
16967;SDS011;64862;54.398;10.126;2024-02-26T02:59:10;25.20;;;9.88;;
16967;SDS011;64862;54.398;10.126;2024-02-26T03:09:13;12.55;;;9.25;;
16967;SDS011;64862;54.398;10.126;2024-02-26T03:19:15;11.77;;;8.57;;
16967;SDS011;64862;54.398;10.126;2024-02-26T03:29:19;11.68;;;7.90;;
16967;SDS011;64862;54.398;10.126;2024-02-26T03:39:21;9.88;;;7.10;;
16967;SDS011;64862;54.398;10.126;2024-02-26T03:49:25;11.20;;;7.90;;
16967;SDS011;64862;54.398;10.126;2024-02-26T03:59:27;9.88;;;6.88;;
16967;SDS011;64862;54.398;10.126;2024-02-26T04:09:32;11.63;;;7.45;;
16967;SDS011;64862;54.398;10.126;2024-02-26T04:19:34;9.73;;;7.10;;
16967;SDS011;64862;54.398;10.126;2024-02-26T04:29:38;8.82;;;6.57;;
16967;SDS011;64862;54.398;10.126;2024-02-26T04:39:40;8.55;;;6.53;;
16967;SDS011;64862;54.398;10.126;2024-02-26T04:49:43;10.38;;;7.43;;
16967;SDS011;64862;54.398;10.126;2024-02-26T04:59:45;11.43;;;7.60;;
16967;SDS011;64862;54.398;10.126;2024-02-26T05:09:49;13.85;;;8.40;;
16967;SDS011;64862;54.398;10.126;2024-02-26T05:19:51;14.00;;;9.18;;
16967;SDS011;64862;54.398;10.126;2024-02-26T05:29:54;14.88;;;9.00;;
16967;SDS011;64862;54.398;10.126;2024-02-26T05:39:58;18.80;;;10.95;;
16967;SDS011;64862;54.398;10.126;2024-02-26T05:50:02;15.68;;;9.57;;
16967;SDS011;64862;54.398;10.126;2024-02-26T06:00:04;15.05;;;9.77;;
16967;SDS011;64862;54.398;10.126;2024-02-26T06:10:15;16.90;;;10.18;;
16967;SDS011;64862;54.398;10.126;2024-02-26T06:20:17;14.82;;;9.50;;
16967;SDS011;64862;54.398;10.126;2024-02-26T06:30:20;15.45;;;9.65;;
16967;SDS011;64862;54.398;10.126;2024-02-26T06:40:22;27.92;;;14.15;;
16967;SDS011;64862;54.398;10.126;2024-02-26T06:50:27;22.73;;;13.90;;
16967;SDS011;64862;54.398;10.126;2024-02-26T07:00:29;20.55;;;11.63;;
16967;SDS011;64862;54.398;10.126;2024-02-26T07:10:33;16.30;;;10.57;;
16967;SDS011;64862;54.398;10.126;2024-02-26T07:20:35;13.15;;;9.13;;
16967;SDS011;64862;54.398;10.126;2024-02-26T07:30:38;104.22;;;10.20;;
16967;SDS011;64862;54.398;10.126;2024-02-26T07:40:40;9.50;;;6.65;;
16967;SDS011;64862;54.398;10.126;2024-02-26T07:50:44;8.88;;;6.07;;
16967;SDS011;64862;54.398;10.126;2024-02-26T08:00:46;27.70;;;7.28;;
16967;SDS011;64862;54.398;10.126;2024-02-26T08:10:50;12.82;;;8.63;;
16967;SDS011;64862;54.398;10.126;2024-02-26T08:20:52;37.42;;;8.85;;
16967;SDS011;64862;54.398;10.126;2024-02-26T08:30:56;13.45;;;8.73;;
16967;SDS011;64862;54.398;10.126;2024-02-26T08:40:58;14.57;;;9.45;;
16967;SDS011;64862;54.398;10.126;2024-02-26T08:51:05;13.45;;;9.32;;
16967;SDS011;64862;54.398;10.126;2024-02-26T09:01:08;35.20;;;8.70;;
16967;SDS011;64862;54.398;10.126;2024-02-26T09:11:15;17.85;;;6.32;;
16967;SDS011;64862;54.398;10.126;2024-02-26T09:21:18;10.75;;;6.57;;
16967;SDS011;64862;54.398;10.126;2024-02-26T09:31:25;10.85;;;7.28;;
16967;SDS011;64862;54.398;10.126;2024-02-26T09:41:27;9.73;;;6.90;;
16967;SDS011;64862;54.398;10.126;2024-02-26T09:51:32;12.60;;;7.88;;
16967;SDS011;64862;54.398;10.126;2024-02-26T10:01:34;27.63;;;7.90;;
16967;SDS011;64862;54.398;10.126;2024-02-26T10:11:39;11.90;;;8.57;;
16967;SDS011;64862;54.398;10.126;2024-02-26T10:21:43;13.48;;;9.07;;
16967;SDS011;64862;54.398;10.126;2024-02-26T10:31:46;17.55;;;10.82;;
16967;SDS011;64862;54.398;10.126;2024-02-26T10:41:49;17.25;;;11.60;;
16967;SDS011;64862;54.398;10.126;2024-02-26T10:51:54;19.85;;;12.70;;
16967;SDS011;64862;54.398;10.126;2024-02-26T11:01:57;16.95;;;11.57;;
16967;SDS011;64862;54.398;10.126;2024-02-26T11:12:01;17.25;;;10.55;;
16967;SDS011;64862;54.398;10.126;2024-02-26T11:22:10;17.27;;;10.88;;
16967;SDS011;64862;54.398;10.126;2024-02-26T11:32:13;15.00;;;10.07;;
16967;SDS011;64862;54.398;10.126;2024-02-26T11:42:16;14.57;;;9.95;;
16967;SDS011;64862;54.398;10.126;2024-02-26T11:52:20;14.98;;;9.52;;
16967;SDS011;64862;54.398;10.126;2024-02-26T12:12:50;13.30;;;9.35;;
16967;SDS011;64862;54.398;10.126;2024-02-26T12:22:55;14.80;;;9.57;;
16967;SDS011;64862;54.398;10.126;2024-02-26T12:32:59;15.38;;;9.65;;
16967;SDS011;64862;54.398;10.126;2024-02-26T12:43:01;14.00;;;9.80;;
16967;SDS011;64862;54.398;10.126;2024-02-26T12:53:05;15.18;;;10.45;;
16967;SDS011;64862;54.398;10.126;2024-02-26T13:03:07;13.57;;;9.38;;
16967;SDS011;64862;54.398;10.126;2024-02-26T13:13:14;15.27;;;10.75;;
16967;SDS011;64862;54.398;10.126;2024-02-26T13:23:17;14.25;;;9.80;;
16967;SDS011;64862;54.398;10.126;2024-02-26T13:33:21;14.10;;;10.13;;
16967;SDS011;64862;54.398;10.126;2024-02-26T13:43:24;15.32;;;10.68;;
16967;SDS011;64862;54.398;10.126;2024-02-26T13:53:27;18.02;;;11.65;;
16967;SDS011;64862;54.398;10.126;2024-02-26T14:03:29;16.77;;;10.93;;
16967;SDS011;64862;54.398;10.126;2024-02-26T14:13:33;18.05;;;11.88;;
16967;SDS011;64862;54.398;10.126;2024-02-26T14:23:35;19.48;;;12.48;;
16967;SDS011;64862;54.398;10.126;2024-02-26T14:33:39;19.33;;;12.68;;
16967;SDS011;64862;54.398;10.126;2024-02-26T14:43:41;20.65;;;13.82;;
16967;SDS011;64862;54.398;10.126;2024-02-26T14:53:44;22.42;;;13.43;;
16967;SDS011;64862;54.398;10.126;2024-02-26T15:03:47;21.85;;;13.98;;
16967;SDS011;64862;54.398;10.126;2024-02-26T15:13:50;20.83;;;14.07;;
16967;SDS011;64862;54.398;10.126;2024-02-26T15:23:52;21.35;;;14.32;;
16967;SDS011;64862;54.398;10.126;2024-02-26T15:33:56;22.67;;;14.43;;
16967;SDS011;64862;54.398;10.126;2024-02-26T15:43:58;22.83;;;14.98;;
16967;SDS011;64862;54.398;10.126;2024-02-26T15:54:02;25.63;;;15.57;;
16967;SDS011;64862;54.398;10.126;2024-02-26T16:04:04;22.88;;;15.07;;
16967;SDS011;64862;54.398;10.126;2024-02-26T16:14:09;24.10;;;15.38;;
16967;SDS011;64862;54.398;10.126;2024-02-26T16:24:18;23.48;;;15.43;;
16967;SDS011;64862;54.398;10.126;2024-02-26T16:34:21;27.83;;;17.63;;
16967;SDS011;64862;54.398;10.126;2024-02-26T16:44:23;24.50;;;15.80;;
16967;SDS011;64862;54.398;10.126;2024-02-26T16:54:28;27.00;;;17.33;;
16967;SDS011;64862;54.398;10.126;2024-02-26T17:04:30;25.13;;;16.45;;
16967;SDS011;64862;54.398;10.126;2024-02-26T17:14:34;26.33;;;16.23;;
16967;SDS011;64862;54.398;10.126;2024-02-26T17:24:36;36.08;;;21.35;;
16967;SDS011;64862;54.398;10.126;2024-02-26T17:34:39;56.53;;;30.25;;
16967;SDS011;64862;54.398;10.126;2024-02-26T17:44:42;35.13;;;18.83;;
16967;SDS011;64862;54.398;10.126;2024-02-26T17:54:45;32.50;;;17.65;;
16967;SDS011;64862;54.398;10.126;2024-02-26T18:04:47;34.53;;;18.55;;
16967;SDS011;64862;54.398;10.126;2024-02-26T18:14:51;38.38;;;20.75;;
16967;SDS011;64862;54.398;10.126;2024-02-26T18:24:53;43.33;;;22.70;;
16967;SDS011;64862;54.398;10.126;2024-02-26T18:34:57;34.08;;;18.63;;
16967;SDS011;64862;54.398;10.126;2024-02-26T18:44:59;37.53;;;20.20;;
16967;SDS011;64862;54.398;10.126;2024-02-26T18:55:03;38.88;;;22.35;;
16967;SDS011;64862;54.398;10.126;2024-02-26T19:05:07;39.13;;;21.05;;
16967;SDS011;64862;54.398;10.126;2024-02-26T19:15:10;30.95;;;17.92;;
16967;SDS011;64862;54.398;10.126;2024-02-26T19:25:17;34.08;;;18.92;;
16967;SDS011;64862;54.398;10.126;2024-02-26T19:35:21;30.73;;;18.17;;
16967;SDS011;64862;54.398;10.126;2024-02-26T19:45:23;26.02;;;14.88;;
16967;SDS011;64862;54.398;10.126;2024-02-26T19:55:26;29.65;;;15.13;;
16967;SDS011;64862;54.398;10.126;2024-02-26T20:05:29;18.13;;;10.65;;
16967;SDS011;64862;54.398;10.126;2024-02-26T20:15:33;16.40;;;11.07;;
16967;SDS011;64862;54.398;10.126;2024-02-26T20:25:35;19.80;;;11.50;;
16967;SDS011;64862;54.398;10.126;2024-02-26T20:35:38;19.63;;;12.85;;
16967;SDS011;64862;54.398;10.126;2024-02-26T20:45:40;19.77;;;12.63;;
16967;SDS011;64862;54.398;10.126;2024-02-26T20:55:51;20.43;;;12.27;;
16967;SDS011;64862;54.398;10.126;2024-02-26T21:05:53;19.27;;;11.00;;
16967;SDS011;64862;54.398;10.126;2024-02-26T21:15:57;19.70;;;11.15;;
16967;SDS011;64862;54.398;10.126;2024-02-26T21:25:59;16.65;;;10.70;;
16967;SDS011;64862;54.398;10.126;2024-02-26T21:36:03;16.17;;;10.27;;
16967;SDS011;64862;54.398;10.126;2024-02-26T21:46:06;18.58;;;10.52;;
16967;SDS011;64862;54.398;10.126;2024-02-26T21:56:09;20.73;;;11.50;;
16967;SDS011;64862;54.398;10.126;2024-02-26T22:06:11;18.38;;;11.10;;
16967;SDS011;64862;54.398;10.126;2024-02-26T22:16:15;15.48;;;10.90;;
16967;SDS011;64862;54.398;10.126;2024-02-26T22:26:17;22.38;;;13.45;;
16967;SDS011;64862;54.398;10.126;2024-02-26T22:36:21;27.90;;;13.68;;
16967;SDS011;64862;54.398;10.126;2024-02-26T22:46:23;21.38;;;13.93;;
16967;SDS011;64862;54.398;10.126;2024-02-26T22:56:26;22.73;;;13.43;;
16967;SDS011;64862;54.398;10.126;2024-02-26T23:06:28;20.85;;;13.45;;
16967;SDS011;64862;54.398;10.126;2024-02-26T23:16:33;19.35;;;12.68;;
16967;SDS011;64862;54.398;10.126;2024-02-26T23:26:36;24.88;;;13.07;;
16967;SDS011;64862;54.398;10.126;2024-02-26T23:36:40;24.83;;;16.45;;
16967;SDS011;64862;54.398;10.126;2024-02-26T23:46:42;28.88;;;16.92;;
16967;SDS011;64862;54.398;10.126;2024-02-26T23:56:46;28.02;;;17.92;;
